Pagina principale
METAR-TAF:

METAR-TAF

Aeroporti :

Kimberley, Sudafrica

latitudine: 28-48S, longitudine: 024-46E, altezza: 1198 m

Osservazione

Il bollettino è stato emesso 14 minuti fa, alle 05:00 UTC
Vento 12 kt da nord
Temperature 17°C
Umidità 88%
Pressione 1019 hPa
Visibilità 10 km o più
nessuna nube inferiore a 1500 m e nessun cumulonembo

METAR: FAKM 300500Z 01012KT CAVOK 17/15 Q1019

Ora: 07:14 (05:14 UTC)

Previsione

Il bollettino è stato emesso 2 ore e 14 minuti fa, alle 03:00 UTC
Previsione valida dal 30 alle 04 UTC al 30 alle 15 UTC
Vento 8 kt da nord/nord-ovest
Visibilità 10 km o più
nessuna nube inferiore a 1500 m e nessun cumulonembo
Evoluzione graduale
dal 30 alle 08 UTC al 30 alle 10 UTC
Nubi sparse ad un'altezza di 6000 ft, Cumulo congesto.

TAF: FAKM 300300Z 3004/3015 33008KT CAVOK TX30/3012Z TN16/3004Z BECMG 3008/3010 SCT060TCU

Osservazioni e previsioni meteorologiche di più di 4000 aeroporti (messaggi METAR e TAF).

Le stazioni disponibili sono rappresentate dai dischi gialli e rossi sulla carta.

Puntare il mouse per vedere il nome della stazione.

Clicca sopra per visualizzare le osservazioni e previsioni meteorologiche.

Per cambiare la mappa : fare clic sui pulsanti verdi con una croce nera per ingrandire, il pulsante verde con un trattino per diminuire, o sulla freccia verde per le mappe adiacenti.


METAR-TAF: